Time;durP1;ratioP1;P1;durP2;ratioP2;P2;SDS_P1;SDS_P2;PMS_P1;PMS_P2;Temp;Humidity;BMP_temperature;BMP_pressure;BME280_temperature;BME280_humidity;BME280_pressure;Samples;Min_cycle;Max_cycle;Signal;HPM_P1;HPM_P2
2022/12/07 00:00:50;;;;;;;16.65;10.35;;;;;;;0.90;95.42;99733.84;2109110;83;21096;-86
2022/12/07 00:03:56;;;;;;;16.15;10.88;;;;;;;0.93;95.44;99733.64;2111478;83;20967;-88
2022/12/07 00:06:57;;;;;;;20.02;10.58;;;;;;;0.95;95.43;99732.20;2111772;83;21733;-87
2022/12/07 00:09:58;;;;;;;13.45;9.70;;;;;;;0.94;95.45;99729.24;2105441;83;21505;-87
2022/12/07 00:13:00;;;;;;;18.52;11.35;;;;;;;0.94;95.47;99730.07;2110958;83;21051;-81
2022/12/07 00:16:11;;;;;;;15.90;9.93;;;;;;;0.94;95.50;99722.23;2107209;83;21019;-88
2022/12/07 00:19:15;;;;;;;16.32;9.73;;;;;;;0.94;95.51;99714.39;2116220;83;21095;-85
2022/12/07 00:22:16;;;;;;;13.78;9.48;;;;;;;0.96;95.60;99715.57;2108961;83;21587;-87
2022/12/07 00:25:17;;;;;;;14.83;9.70;;;;;;;0.95;95.54;99709.52;2117525;83;21088;-86
2022/12/07 00:28:18;;;;;;;13.58;8.90;;;;;;;0.95;95.56;99705.59;2107495;83;21014;-84
2022/12/07 00:31:23;;;;;;;13.68;9.15;;;;;;;0.95;95.57;99703.47;2117075;83;21625;-83
2022/12/07 00:34:24;;;;;;;14.38;9.28;;;;;;;0.95;95.62;99699.55;2116900;83;21561;-83
2022/12/07 00:37:25;;;;;;;15.38;9.90;;;;;;;0.95;95.71;99699.06;2109225;83;21458;-86
2022/12/07 00:40:29;;;;;;;11.50;9.08;;;;;;;0.93;95.71;99700.98;2115577;83;21053;-85
2022/12/07 00:43:31;;;;;;;10.93;9.08;;;;;;;0.93;95.70;99696.21;2111077;83;21112;-87
2022/12/07 00:46:32;;;;;;;15.72;9.00;;;;;;;0.92;95.75;99693.25;2113164;83;21058;-85
2022/12/07 00:49:33;;;;;;;14.33;9.13;;;;;;;0.93;95.80;99689.68;2111872;83;20986;-79
2022/12/07 00:52:35;;;;;;;12.50;8.35;;;;;;;0.93;95.86;99690.53;2081239;83;21052;-86
2022/12/07 00:55:36;;;;;;;9.28;7.67;;;;;;;0.95;95.87;99687.80;2111630;83;21019;-86
2022/12/07 00:58:37;;;;;;;12.70;8.43;;;;;;;0.96;95.89;99698.14;2108727;83;21088;-87
2022/12/07 01:01:38;;;;;;;11.12;7.40;;;;;;;0.96;95.96;99695.98;2106500;83;21039;-82
2022/12/07 01:04:39;;;;;;;11.97;8.23;;;;;;;0.99;95.92;99703.13;2110581;83;20978;-88
2022/12/07 01:07:40;;;;;;;11.48;7.92;;;;;;;1.00;95.91;99697.42;2113068;83;21100;-87
2022/12/07 01:10:42;;;;;;;10.30;7.10;;;;;;;1.01;95.89;99695.16;2112053;83;21498;-85
2022/12/07 01:13:44;;;;;;;9.53;6.83;;;;;;;1.03;95.94;99695.88;2114164;83;21486;-87
2022/12/07 01:16:45;;;;;;;8.00;6.67;;;;;;;1.05;95.93;99696.61;2107198;83;21074;-87
2022/12/07 01:19:46;;;;;;;11.70;7.28;;;;;;;1.05;95.93;99696.13;2108520;83;21019;-87
2022/12/07 01:22:49;;;;;;;11.55;7.12;;;;;;;1.04;95.87;99693.17;2087724;83;21009;-87
2022/12/07 01:25:59;;;;;;;8.15;5.95;;;;;;;1.04;95.84;99696.23;2091647;83;21014;-87
2022/12/07 01:29:00;;;;;;;9.23;6.58;;;;;;;1.05;95.84;99692.69;2086682;83;21046;-86
2022/12/07 01:32:01;;;;;;;8.38;6.40;;;;;;;1.03;95.83;99688.87;2083010;83;21036;-88
2022/12/07 01:35:05;;;;;;;8.10;6.30;;;;;;;1.02;95.88;99685.09;2081481;83;21029;-85
2022/12/07 01:38:06;;;;;;;9.65;6.50;;;;;;;1.02;95.88;99690.31;2082690;83;21060;-88
2022/12/07 01:41:08;;;;;;;8.25;6.25;;;;;;;1.02;95.91;99688.52;2087317;83;21129;-85
2022/12/07 01:44:25;;;;;;;10.08;6.85;;;;;;;1.03;95.92;99689.35;2078898;83;21008;-88
2022/12/07 01:47:27;;;;;;;9.23;6.20;;;;;;;1.04;95.92;99690.56;2073473;83;21069;-86
2022/12/07 01:50:31;;;;;;;10.38;5.72;;;;;;;1.04;95.90;99687.95;2083051;83;21504;-88
2022/12/07 01:53:36;;;;;;;6.00;5.30;;;;;;;1.03;95.90;99687.56;2088260;83;21068;-88
2022/12/07 01:56:42;;;;;;;6.53;5.55;;;;;;;1.03;95.98;99688.87;2089860;83;21056;-87
2022/12/07 01:59:48;;;;;;;7.70;5.60;;;;;;;1.03;96.04;99688.05;2087524;83;21563;-87
2022/12/07 02:03:18;;;;;;;8.73;5.55;;;;;;;1.01;95.98;99685.53;2086552;83;21015;-88
2022/12/07 02:06:23;;;;;;;7.10;5.20;;;;;;;1.01;95.97;99687.32;2078261;83;21035;-80
2022/12/07 02:09:24;;;;;;;6.97;4.60;;;;;;;0.97;96.02;99684.12;2075577;83;20992;-79
2022/12/07 02:12:26;;;;;;;8.28;5.22;;;;;;;1.00;96.02;99690.89;2096203;84;21131;-88
2022/12/07 02:15:39;;;;;;;6.90;4.95;;;;;;;0.99;96.01;99690.06;2092969;84;20991;-87
2022/12/07 02:18:54;;;;;;;6.50;5.35;;;;;;;1.00;96.04;99692.20;2090986;84;21040;-87
2022/12/07 02:22:14;;;;;;;6.37;4.83;;;;;;;1.00;96.03;99688.28;2110877;83;21107;-86
2022/12/07 02:25:43;;;;;;;5.28;4.60;;;;;;;1.00;96.07;99690.89;2108450;84;21518;-86
2022/12/07 02:28:57;;;;;;;5.12;4.47;;;;;;;0.99;96.10;99685.32;2092764;83;21097;-85
2022/12/07 02:32:27;;;;;;;6.17;4.37;;;;;;;0.97;96.12;99683.29;2076630;84;21117;-87
2022/12/07 02:35:43;;;;;;;5.95;4.75;;;;;;;0.97;96.17;99684.59;2111078;83;21009;-80
2022/12/07 02:38:52;;;;;;;5.97;4.40;;;;;;;0.94;96.22;99686.14;2113570;82;21057;-87
2022/12/07 02:41:58;;;;;;;7.03;4.67;;;;;;;0.92;96.37;99686.23;2108975;84;21080;-88
2022/12/07 02:45:01;;;;;;;5.10;4.60;;;;;;;0.92;96.39;99685.41;2120269;83;21050;-86
2022/12/07 02:48:04;;;;;;;6.22;4.80;;;;;;;0.92;96.37;99681.02;2123976;83;21014;-86
2022/12/07 02:51:05;;;;;;;4.37;3.52;;;;;;;0.92;96.35;99678.41;2129729;83;21076;-81
2022/12/07 02:54:17;;;;;;;3.72;3.22;;;;;;;0.91;96.28;99674.14;2128750;83;21482;-84
2022/12/07 02:57:26;;;;;;;4.35;3.33;;;;;;;0.91;96.27;99681.15;2121045;83;21441;-84
2022/12/07 03:00:29;;;;;;;4.25;3.62;;;;;;;0.91;96.29;99675.92;2130546;83;21015;-88
2022/12/07 03:03:32;;;;;;;3.45;3.15;;;;;;;0.89;96.28;99679.94;2125086;83;21039;-88
2022/12/07 03:06:39;;;;;;;3.75;3.37;;;;;;;0.87;96.25;99677.46;2129203;83;21513;-86
2022/12/07 03:09:54;;;;;;;3.22;2.90;;;;;;;0.85;96.23;99675.43;2125964;83;21061;-81
2022/12/07 03:13:29;;;;;;;3.87;3.05;;;;;;;0.84;96.25;99678.97;2127918;82;21042;-86
2022/12/07 03:16:41;;;;;;;2.80;2.55;;;;;;;0.83;96.21;99678.63;2125381;83;21057;-86
2022/12/07 03:19:46;;;;;;;3.25;2.42;;;;;;;0.81;96.24;99671.84;2133329;83;21330;-84
2022/12/07 03:22:50;;;;;;;2.80;2.50;;;;;;;0.80;96.28;99671.50;2112952;83;21072;-85
2022/12/07 03:25:56;;;;;;;3.80;1.95;;;;;;;0.79;96.21;99666.75;2128315;83;21045;-81
2022/12/07 03:29:03;;;;;;;2.40;2.20;;;;;;;0.77;96.21;99669.12;2124888;83;20993;-87
2022/12/07 03:32:26;;;;;;;2.80;2.17;;;;;;;0.76;96.03;99664.38;2126307;83;21126;-86
2022/12/07 03:35:44;;;;;;;3.22;2.45;;;;;;;0.76;96.03;99664.38;2119982;83;21468;-87
2022/12/07 03:39:04;;;;;;;2.95;2.22;;;;;;;0.76;96.28;99665.69;2121248;82;21584;-87
2022/12/07 03:42:08;;;;;;;2.47;2.27;;;;;;;0.73;96.32;99663.27;2116440;83;20973;-84
2022/12/07 03:45:11;;;;;;;2.80;2.05;;;;;;;0.74;96.33;99666.27;2124888;82;21057;-87
2022/12/07 03:48:41;;;;;;;3.25;2.42;;;;;;;0.74;96.32;99656.30;2098229;83;21005;-86
2022/12/07 03:52:23;;;;;;;3.52;2.60;;;;;;;0.74;96.32;99656.30;2122171;83;21105;-87
2022/12/07 03:55:35;;;;;;;2.87;2.58;;;;;;;0.75;96.32;99651.42;2125130;83;21044;-86
2022/12/07 03:58:37;;;;;;;2.17;1.98;;;;;;;0.71;96.32;99646.91;2125311;83;21128;-86
2022/12/07 04:01:38;;;;;;;4.15;2.17;;;;;;;0.70;96.44;99650.45;2121063;83;21014;-85
2022/12/07 04:04:40;;;;;;;4.22;2.37;;;;;;;0.70;96.46;99648.31;2128993;83;21033;-86
2022/12/07 04:07:41;;;;;;;2.60;2.40;;;;;;;0.71;96.48;99651.30;2131159;82;21077;-84
2022/12/07 04:10:42;;;;;;;2.60;2.40;;;;;;;0.71;96.51;99645.61;2122540;82;21462;-86
2022/12/07 04:17:04;;;;;;;4.05;3.10;;;;;;;0.71;96.38;99646.08;2094764;84;21076;-86
2022/12/07 04:20:07;;;;;;;10.65;4.45;;;;;;;0.70;96.42;99649.14;2105461;84;21346;-86
2022/12/07 04:23:08;;;;;;;16.30;5.62;;;;;;;0.69;96.40;99654.02;2085838;84;21040;-85
2022/12/07 04:26:09;;;;;;;6.22;4.08;;;;;;;0.67;96.37;99654.59;2099791;84;21116;-85
2022/12/07 04:29:11;;;;;;;8.88;4.10;;;;;;;0.68;96.37;99647.14;2098462;84;21032;-85
2022/12/07 04:32:12;;;;;;;4.72;3.02;;;;;;;0.69;96.38;99650.10;2098882;84;21056;-85
2022/12/07 04:35:13;;;;;;;4.80;3.30;;;;;;;0.67;96.36;99640.23;2100154;84;20998;-85
2022/12/07 04:38:14;;;;;;;6.65;2.70;;;;;;;0.66;96.34;99649.03;2098309;84;22233;-84
2022/12/07 04:41:15;;;;;;;3.80;2.58;;;;;;;0.66;96.40;99648.55;2101338;84;22180;-84
2022/12/07 04:44:18;;;;;;;4.30;3.05;;;;;;;0.67;96.43;99651.51;2105505;84;21065;-85
2022/12/07 04:47:19;;;;;;;4.58;2.60;;;;;;;0.69;96.44;99646.19;2100637;84;21071;-85
2022/12/07 04:50:20;;;;;;;2.70;2.50;;;;;;;0.68;96.49;99648.45;2097868;84;21069;-83
2022/12/07 04:53:22;;;;;;;4.03;2.80;;;;;;;0.66;96.45;99643.80;2100904;84;21045;-85
2022/12/07 04:56:28;;;;;;;3.85;3.27;;;;;;;0.65;96.40;99649.51;2102042;84;21089;-85
2022/12/07 04:59:28;;;;;;;5.83;3.92;;;;;;;0.64;96.43;99654.34;2098180;84;21057;-83
2022/12/07 05:02:29;;;;;;;4.12;3.55;;;;;;;0.63;96.39;99647.95;2101358;84;20983;-86
2022/12/07 05:05:33;;;;;;;5.72;3.85;;;;;;;0.61;96.40;99654.58;2099488;84;21043;-82
2022/12/07 05:08:35;;;;;;;4.37;3.60;;;;;;;0.60;96.41;99656.02;2104790;84;21053;-83
2022/12/07 05:11:39;;;;;;;4.15;3.62;;;;;;;0.60;96.43;99664.68;2106986;84;21081;-84
2022/12/07 05:14:40;;;;;;;5.53;3.83;;;;;;;0.61;96.54;99659.80;2097458;83;21587;-84
2022/12/07 05:17:42;;;;;;;3.77;3.47;;;;;;;0.62;96.54;99658.87;2095143;84;21501;-84
2022/12/07 05:20:46;;;;;;;6.08;3.52;;;;;;;0.62;96.58;99653.66;2098513;84;21069;-85
2022/12/07 05:23:47;;;;;;;7.50;3.77;;;;;;;0.62;96.57;99652.80;2107071;83;21020;-85
2022/12/07 05:26:48;;;;;;;6.67;3.77;;;;;;;0.62;96.60;99648.88;2107315;83;21058;-82
2022/12/07 05:29:51;;;;;;;5.45;3.42;;;;;;;0.61;96.65;99650.66;2110278;83;21070;-84
2022/12/07 05:32:53;;;;;;;6.87;3.62;;;;;;;0.62;96.68;99648.88;2111794;83;21035;-85
2022/12/07 05:35:54;;;;;;;7.40;4.28;;;;;;;0.61;96.79;99644.62;2109839;83;21058;-85
2022/12/07 05:38:55;;;;;;;4.00;3.58;;;;;;;0.63;96.77;99654.48;2117529;83;21065;-83
2022/12/07 05:42:12;;;;;;;3.75;3.35;;;;;;;0.61;96.70;99653.28;2107780;83;20974;-84
2022/12/07 05:45:13;;;;;;;4.35;3.27;;;;;;;0.60;96.69;99649.49;2112906;83;21005;-83
2022/12/07 05:48:14;;;;;;;5.22;3.58;;;;;;;0.60;96.74;99646.88;2113035;83;20996;-74
2022/12/07 05:51:15;;;;;;;4.65;4.12;;;;;;;0.58;96.78;99647.46;2110641;83;21518;-74
2022/12/07 05:54:17;;;;;;;4.72;3.77;;;;;;;0.60;96.85;99651.63;2112752;83;21015;-75
2022/12/07 05:57:19;;;;;;;7.25;4.40;;;;;;;0.60;96.95;99647.70;2085685;83;21482;-76
2022/12/07 06:00:20;;;;;;;5.85;4.47;;;;;;;0.62;97.00;99656.72;2111607;83;21089;-77
2022/12/07 06:03:23;;;;;;;6.80;4.75;;;;;;;0.63;97.09;99657.09;2110841;83;21624;-77
2022/12/07 06:06:24;;;;;;;5.70;4.92;;;;;;;0.67;97.16;99650.68;2113544;83;20994;-78
2022/12/07 06:09:27;;;;;;;6.62;5.67;;;;;;;0.67;97.27;99637.63;2112532;83;20966;-80
2022/12/07 06:12:34;;;;;;;9.88;6.22;;;;;;;0.70;97.24;99641.31;2117420;83;21006;-86
2022/12/07 06:15:37;;;;;;;10.43;6.60;;;;;;;0.72;97.28;99642.03;2111922;83;21617;-83
2022/12/07 06:18:38;;;;;;;9.45;7.20;;;;;;;0.75;97.33;99644.41;2109355;83;21089;-86
2022/12/07 06:21:39;;;;;;;12.00;8.00;;;;;;;0.76;97.33;99647.84;2100353;83;21141;-85
2022/12/07 06:24:43;;;;;;;10.15;8.30;;;;;;;0.77;97.39;99637.78;2073488;83;20992;-88
2022/12/07 06:27:44;;;;;;;13.43;9.43;;;;;;;0.78;97.35;99641.56;2087134;83;21010;-85
2022/12/07 06:30:45;;;;;;;15.40;9.25;;;;;;;0.79;97.31;99644.55;2082424;83;21697;-86
2022/12/07 06:33:46;;;;;;;17.57;10.72;;;;;;;0.79;97.23;99644.55;2084592;83;21084;-87
2022/12/07 06:36:51;;;;;;;16.70;10.65;;;;;;;0.80;97.16;99646.20;2081139;83;21085;-89
2022/12/07 06:39:50;;;;;;;20.27;11.45;;;;;;;0.81;97.06;99653.08;2094121;84;21045;-85
2022/12/07 06:42:51;;;;;;;16.75;11.43;;;;;;;0.79;96.88;99645.86;2091069;84;21105;-84
2022/12/07 06:45:52;;;;;;;17.75;12.15;;;;;;;0.77;96.76;99652.97;2099539;84;21567;-76
2022/12/07 06:48:53;;;;;;;19.65;12.53;;;;;;;0.77;96.71;99648.23;2098780;84;21053;-85
2022/12/07 06:51:54;;;;;;;19.87;13.05;;;;;;;0.77;96.65;99654.28;2094773;84;21034;-86
2022/12/07 06:54:55;;;;;;;20.15;13.50;;;;;;;0.77;96.58;99649.53;2080871;83;21029;-86
2022/12/07 06:57:57;;;;;;;21.17;13.58;;;;;;;0.80;96.46;99657.96;2089316;84;21089;-81
2022/12/07 07:00:58;;;;;;;24.70;14.78;;;;;;;0.82;96.48;99657.38;2089685;84;20993;-88
2022/12/07 07:04:00;;;;;;;24.30;14.95;;;;;;;0.82;96.30;99650.85;2093293;84;21036;-84
2022/12/07 07:07:02;;;;;;;25.92;15.95;;;;;;;0.82;96.26;99654.77;2095879;84;20997;-77
2022/12/07 07:10:04;;;;;;;22.42;15.50;;;;;;;0.84;96.23;99659.38;2087724;84;21526;-89
2022/12/07 07:13:06;;;;;;;24.50;14.85;;;;;;;0.85;96.11;99651.92;2094956;84;21014;-86
2022/12/07 07:16:08;;;;;;;24.70;14.63;;;;;;;0.84;95.94;99652.02;2089006;84;21090;-89
2022/12/07 07:19:09;;;;;;;24.77;14.95;;;;;;;0.84;95.89;99648.93;2096152;84;21584;-85
2022/12/07 07:22:10;;;;;;;20.72;14.13;;;;;;;0.85;95.85;99643.26;2096178;84;21517;-88
2022/12/07 07:25:11;;;;;;;24.35;15.45;;;;;;;0.86;95.73;99647.05;2076682;84;21105;-91
2022/12/07 07:28:13;;;;;;;25.77;14.65;;;;;;;0.86;95.60;99652.27;2088060;85;21050;-90
2022/12/07 07:31:14;;;;;;;26.00;15.00;;;;;;;0.87;95.47;99650.48;2080854;84;20974;-87
2022/12/07 07:34:15;;;;;;;21.80;13.72;;;;;;;0.88;95.32;99646.95;2080817;84;21837;-87
2022/12/07 07:37:16;;;;;;;26.35;14.35;;;;;;;0.89;95.25;99635.53;2070571;85;21046;-88
2022/12/07 07:40:18;;;;;;;26.65;15.18;;;;;;;0.92;95.17;99642.31;2076247;85;21106;-88
2022/12/07 07:43:19;;;;;;;24.12;15.50;;;;;;;0.92;95.15;99639.70;2088270;84;21092;-86
2022/12/07 07:46:20;;;;;;;27.70;14.65;;;;;;;0.90;95.04;99638.49;2090469;84;21023;-90
2022/12/07 07:49:21;;;;;;;21.80;14.20;;;;;;;0.93;94.96;99645.27;2094486;84;21022;-87
2022/12/07 07:52:22;;;;;;;26.65;15.68;;;;;;;0.92;94.49;99643.61;2094918;84;21004;-89
2022/12/07 07:55:23;;;;;;;22.80;13.30;;;;;;;0.96;94.57;99646.34;2092676;84;21085;-86
2022/12/07 07:58:25;;;;;;;30.30;17.27;;;;;;;1.00;94.56;99648.61;2091287;84;21036;-89
2022/12/07 08:01:26;;;;;;;26.77;14.30;;;;;;;1.07;94.64;99647.20;2091907;84;21038;-88
2022/12/07 08:04:27;;;;;;;24.27;13.90;;;;;;;1.17;94.83;99651.23;2096015;83;21063;-92
2022/12/07 08:07:28;;;;;;;25.15;14.35;;;;;;;1.29;94.94;99650.28;2092863;84;20998;-87
2022/12/07 08:10:31;;;;;;;21.40;12.90;;;;;;;1.40;94.62;99646.84;2090932;84;21105;-87
2022/12/07 08:13:33;;;;;;;23.40;14.25;;;;;;;1.44;94.19;99656.13;2090358;83;21081;-87
2022/12/07 08:16:34;;;;;;;23.22;14.90;;;;;;;1.44;93.94;99656.60;2090752;83;20974;-88
2022/12/07 08:19:35;;;;;;;26.07;15.05;;;;;;;1.43;93.81;99649.21;2094050;84;21083;-86
2022/12/07 08:22:36;;;;;;;26.65;15.58;;;;;;;1.41;93.54;99662.05;2093112;83;21048;-89
2022/12/07 08:25:38;;;;;;;22.77;15.38;;;;;;;1.39;93.50;99656.13;2102640;84;21488;-88
2022/12/07 08:28:39;;;;;;;22.50;13.30;;;;;;;1.40;93.63;99661.70;2099072;84;21842;-86
2022/12/07 08:31:40;;;;;;;21.62;15.25;;;;;;;1.40;93.57;99653.38;2102621;83;21060;-82
2022/12/07 08:34:42;;;;;;;22.77;15.63;;;;;;;1.44;93.60;99652.20;2095453;83;22411;-81
2022/12/07 08:37:43;;;;;;;21.80;14.50;;;;;;;1.48;93.55;99656.70;2100034;83;21056;-81
2022/12/07 08:40:47;;;;;;;24.47;13.78;;;;;;;1.46;93.16;99661.22;2098759;84;21734;-81
2022/12/07 08:43:48;;;;;;;20.27;12.28;;;;;;;1.43;92.92;99662.28;2098554;84;21056;-80
2022/12/07 08:46:57;;;;;;;22.30;14.00;;;;;;;1.41;92.62;99663.34;2103625;84;21469;-80
2022/12/07 08:50:03;;;;;;;24.85;14.45;;;;;;;1.42;92.74;99667.64;2096706;83;21005;-80
2022/12/07 08:53:04;;;;;;;21.97;14.85;;;;;;;1.40;92.57;99669.54;2064408;84;21508;-84
2022/12/07 08:56:07;;;;;;;25.27;14.65;;;;;;;1.41;92.46;99662.90;2092706;84;21067;-81
2022/12/07 08:59:09;;;;;;;23.52;15.68;;;;;;;1.49;92.18;99660.97;2101066;84;21034;-80
2022/12/07 09:02:10;;;;;;;23.73;14.07;;;;;;;1.95;93.40;99646.89;2101638;83;21037;-81
2022/12/07 09:05:14;;;;;;;20.40;13.20;;;;;;;2.19;92.61;99637.03;2096163;84;21029;-80
2022/12/07 09:08:16;;;;;;;16.30;11.15;;;;;;;2.41;92.14;99638.73;2098498;84;21043;-81
2022/12/07 09:11:17;;;;;;;17.65;11.20;;;;;;;2.46;91.32;99629.20;2101565;84;21429;-81
2022/12/07 09:14:18;;;;;;;20.45;12.25;;;;;;;2.46;90.84;99630.51;2098897;84;21044;-80
2022/12/07 09:17:20;;;;;;;22.73;12.00;;;;;;;2.48;90.55;99624.67;2103115;84;21010;-81
2022/12/07 09:20:21;;;;;;;19.45;12.33;;;;;;;2.52;90.72;99626.55;2099959;84;22427;-80
2022/12/07 09:23:23;;;;;;;21.10;13.32;;;;;;;2.54;89.99;99624.16;2088575;84;21093;-81
2022/12/07 09:26:24;;;;;;;21.77;13.28;;;;;;;2.57;90.17;99619.14;2101300;84;21069;-81
2022/12/07 09:29:25;;;;;;;18.25;10.82;;;;;;;2.67;90.48;99616.92;2066300;84;20971;-81
2022/12/07 09:32:26;;;;;;;16.62;11.15;;;;;;;2.72;89.44;99611.30;2085908;84;21043;-81
2022/12/07 09:35:28;;;;;;;24.12;13.62;;;;;;;2.71;89.35;99611.45;2087311;84;21075;-81
2022/12/07 09:38:31;;;;;;;16.87;10.58;;;;;;;2.66;89.02;99606.58;2085486;84;21085;-81
2022/12/07 09:41:33;;;;;;;16.17;10.90;;;;;;;2.71;89.27;99602.28;2088316;84;20986;-81
2022/12/07 09:44:36;;;;;;;16.23;10.90;;;;;;;2.79;89.48;99602.44;2094010;84;20997;-81
2022/12/07 09:47:37;;;;;;;15.03;10.70;;;;;;;2.85;88.89;99595.39;2092667;84;21624;-82
2022/12/07 09:50:40;;;;;;;18.45;11.30;;;;;;;2.85;87.61;99592.77;2084174;84;21048;-81
2022/12/07 09:53:42;;;;;;;18.73;10.50;;;;;;;2.80;88.05;99589.22;2087168;84;21725;-84
2022/12/07 09:56:44;;;;;;;13.75;9.25;;;;;;;2.84;87.93;99577.50;2081271;84;21592;-81
2022/12/07 09:59:45;;;;;;;13.98;9.68;;;;;;;2.89;87.62;99577.95;2090563;84;21138;-82
2022/12/07 10:03:00;;;;;;;12.33;9.13;;;;;;;2.98;87.54;99582.88;2083531;84;21025;-83
2022/12/07 10:06:01;;;;;;;16.23;9.35;;;;;;;3.18;87.60;99573.30;2082556;84;21057;-82
2022/12/07 10:09:12;;;;;;;12.78;9.33;;;;;;;3.36;87.50;99570.41;2079482;84;20965;-78
2022/12/07 10:12:13;;;;;;;11.95;8.45;;;;;;;3.54;87.77;99580.25;2074965;84;21510;-80
2022/12/07 10:15:14;;;;;;;11.30;7.80;;;;;;;3.58;86.19;99565.42;2076466;84;21544;-83
2022/12/07 10:18:41;;;;;;;12.60;8.00;;;;;;;3.55;85.84;99568.32;2045352;84;21024;-82
2022/12/07 10:21:48;;;;;;;10.20;6.50;;;;;;;3.54;85.98;99562.70;2081562;84;21036;-80
2022/12/07 10:24:49;;;;;;;8.20;6.33;;;;;;;3.47;85.19;99547.18;2046716;84;21082;-83
2022/12/07 10:28:14;;;;;;;9.70;6.97;;;;;;;3.37;85.11;99555.50;2084052;84;21042;-82
2022/12/07 10:31:20;;;;;;;12.33;7.50;;;;;;;3.30;84.25;99543.91;2087011;84;21647;-81
2022/12/07 10:34:26;;;;;;;10.75;7.30;;;;;;;3.23;84.72;99538.83;2092549;84;21086;-82
2022/12/07 10:37:27;;;;;;;10.88;7.65;;;;;;;3.25;84.94;99531.18;2086838;84;21034;-82
2022/12/07 10:40:36;;;;;;;10.45;7.92;;;;;;;3.29;84.80;99523.86;2091272;84;21095;-82
2022/12/07 10:43:37;;;;;;;12.03;8.25;;;;;;;3.27;84.36;99524.50;2090242;84;21007;-82
2022/12/07 10:46:55;;;;;;;10.88;7.55;;;;;;;3.28;84.67;99522.22;2038038;85;21032;-81
2022/12/07 10:50:46;;;;;;;13.62;8.05;;;;;;;3.27;84.29;99524.50;2057826;84;21791;-84
2022/12/07 10:53:59;;;;;;;12.65;8.20;;;;;;;3.21;84.16;99523.25;2086286;84;21102;-81
2022/12/07 10:57:39;;;;;;;11.48;7.85;;;;;;;3.17;84.31;99523.15;2088248;84;21134;-81
2022/12/07 11:00:52;;;;;;;16.12;10.15;;;;;;;3.17;84.59;99524.46;2085116;84;22444;-81
2022/12/07 11:04:19;;;;;;;16.60;9.35;;;;;;;3.13;84.56;99528.33;2089708;84;21073;-82
2022/12/07 11:08:01;;;;;;;14.25;9.00;;;;;;;3.02;84.15;99524.02;2080391;84;21043;-82
2022/12/07 11:11:25;;;;;;;14.75;8.95;;;;;;;2.86;84.24;99525.80;2078137;84;21085;-81
2022/12/07 11:14:37;;;;;;;13.32;8.73;;;;;;;2.65;85.14;99523.73;2079699;84;21050;-81
2022/12/07 11:18:10;;;;;;;17.42;10.60;;;;;;;2.59;85.75;99522.46;2085105;84;20997;-81
2022/12/07 11:21:22;;;;;;;16.27;10.13;;;;;;;2.53;86.04;99521.64;2078770;85;21081;-81
2022/12/07 11:24:58;;;;;;;14.35;9.63;;;;;;;2.47;86.25;99522.17;2116415;83;21077;-81
2022/12/07 11:28:29;;;;;;;16.85;9.95;;;;;;;2.44;86.32;99519.81;2128743;82;21066;-81
2022/12/07 11:31:38;;;;;;;14.25;9.00;;;;;;;2.40;86.67;99521.05;2116642;83;20993;-82
2022/12/07 11:35:26;;;;;;;14.83;9.18;;;;;;;2.38;86.66;99515.92;2119370;83;21101;-82
2022/12/07 11:38:50;;;;;;;11.30;7.45;;;;;;;2.37;86.59;99513.45;2103131;84;20998;-82
2022/12/07 11:42:08;;;;;;;9.13;5.67;;;;;;;2.34;86.78;99512.40;2103244;84;21648;-83
2022/12/07 11:45:32;;;;;;;7.10;5.05;;;;;;;2.27;86.94;99512.06;2132223;83;20972;-81
2022/12/07 11:48:48;;;;;;;7.10;3.90;;;;;;;2.26;87.11;99508.28;2086294;84;21088;-83
2022/12/07 11:51:53;;;;;;;8.45;4.45;;;;;;;2.23;87.03;99507.57;2101680;84;21577;-84
2022/12/07 11:54:54;;;;;;;6.80;4.65;;;;;;;2.24;87.06;99506.60;2097533;84;21584;-81
2022/12/07 11:58:10;;;;;;;10.98;5.60;;;;;;;2.28;87.18;99501.96;2128571;83;21059;-82
2022/12/07 12:01:33;;;;;;;6.28;4.53;;;;;;;2.32;87.38;99491.56;2070050;84;21509;-81
2022/12/07 12:04:49;;;;;;;9.55;5.33;;;;;;;2.31;86.95;99493.84;2095542;84;21545;-80
2022/12/07 12:08:00;;;;;;;8.95;5.78;;;;;;;2.30;86.74;99493.96;2125087;83;21010;-80
2022/12/07 12:11:55;;;;;;;10.70;6.33;;;;;;;2.29;86.95;99496.23;2110732;83;21078;-80
2022/12/07 12:15:08;;;;;;;12.60;7.90;;;;;;;2.27;86.66;99496.84;2124270;83;21615;-80
2022/12/07 12:18:42;;;;;;;11.65;7.55;;;;;;;2.26;86.98;99494.70;2128540;83;21014;-80
2022/12/07 12:21:49;;;;;;;15.45;9.45;;;;;;;2.27;87.00;99496.84;2125769;83;21043;-81
2022/12/07 12:24:54;;;;;;;11.73;8.13;;;;;;;2.28;86.77;99497.18;2118955;83;21004;-81
2022/12/07 12:27:59;;;;;;;9.55;7.08;;;;;;;2.27;87.20;99498.15;2112756;83;21494;-82
2022/12/07 12:31:16;;;;;;;7.22;5.47;;;;;;;2.29;86.95;99495.75;2113599;83;21046;-81
2022/12/07 12:34:44;;;;;;;8.15;5.42;;;;;;;2.28;86.93;99492.80;2105835;83;21045;-82
2022/12/07 12:37:46;;;;;;;10.03;5.70;;;;;;;2.31;86.89;99500.84;2080352;85;21091;-81
2022/12/07 12:40:47;;;;;;;7.17;5.62;;;;;;;2.30;86.35;99490.03;2079714;85;21049;-80
2022/12/07 12:43:52;;;;;;;12.18;5.85;;;;;;;2.31;86.40;99486.45;2069622;85;21109;-81
2022/12/07 12:47:41;;;;;;;7.95;5.85;;;;;;;2.33;86.68;99491.08;2078786;84;21056;-81
2022/12/07 12:50:43;;;;;;;8.30;5.42;;;;;;;2.35;86.73;99477.39;2100887;84;21060;-81
2022/12/07 12:53:44;;;;;;;8.50;5.50;;;;;;;2.36;86.56;99480.34;2113526;83;21445;-81
2022/12/07 12:57:26;;;;;;;11.38;6.25;;;;;;;2.36;86.56;99482.97;2114761;83;21048;-80
2022/12/07 13:00:29;;;;;;;9.65;6.47;;;;;;;2.40;85.97;99478.66;2107644;83;21003;-81
2022/12/07 13:03:34;;;;;;;16.17;7.12;;;;;;;2.50;85.82;99477.88;2114099;83;21003;-80
2022/12/07 13:06:38;;;;;;;11.45;6.83;;;;;;;2.58;85.78;99474.12;2111257;83;21068;-80
2022/12/07 13:09:43;;;;;;;11.25;6.55;;;;;;;2.60;85.96;99476.14;2107952;83;21074;-80
2022/12/07 13:13:06;;;;;;;8.80;5.25;;;;;;;2.61;85.78;99487.77;2103301;83;21061;-80
2022/12/07 13:16:13;;;;;;;9.45;6.50;;;;;;;2.58;84.63;99473.63;2112737;83;21092;-81
2022/12/07 13:19:47;;;;;;;9.38;6.00;;;;;;;2.57;85.06;99486.39;2096290;83;21030;-81
2022/12/07 13:22:52;;;;;;;8.15;4.92;;;;;;;2.56;85.22;99486.05;2118064;83;21046;-80
2022/12/07 13:26:24;;;;;;;7.70;5.12;;;;;;;2.54;85.24;99478.80;2108017;83;21578;-80
2022/12/07 13:29:25;;;;;;;7.58;5.75;;;;;;;2.51;84.33;99480.86;2116617;83;21147;-82
2022/12/07 13:32:29;;;;;;;6.70;5.40;;;;;;;2.49;84.48;99474.91;2107703;83;21613;-81
2022/12/07 13:35:35;;;;;;;9.15;5.67;;;;;;;2.47;84.51;99481.58;2113001;83;20984;-81
2022/12/07 13:38:43;;;;;;;11.35;5.83;;;;;;;2.45;84.63;99484.83;2113053;83;21130;-81
2022/12/07 13:41:50;;;;;;;10.08;5.60;;;;;;;2.44;84.73;99491.00;2111985;83;21072;-80
2022/12/07 13:44:51;;;;;;;8.05;5.35;;;;;;;2.41;84.62;99497.81;2111405;83;21544;-81
2022/12/07 13:47:59;;;;;;;8.68;6.08;;;;;;;2.41;84.17;99496.50;2088508;83;21039;-81
2022/12/07 13:51:03;;;;;;;9.40;4.83;;;;;;;2.40;84.58;99500.92;2112277;83;21447;-81
2022/12/07 13:54:13;;;;;;;11.10;6.50;;;;;;;2.39;84.58;99494.48;2076886;83;21014;-81
2022/12/07 13:57:16;;;;;;;10.25;6.62;;;;;;;2.37;84.45;99498.56;2114032;83;21470;-82
2022/12/07 14:00:23;;;;;;;9.40;5.95;;;;;;;2.34;84.13;99496.20;2111161;83;21787;-81
2022/12/07 14:03:29;;;;;;;11.03;6.50;;;;;;;2.31;84.18;99489.92;2110892;83;21021;-81
2022/12/07 14:06:30;;;;;;;10.00;6.17;;;;;;;2.27;84.01;99478.03;2110405;83;21073;-81
2022/12/07 14:09:31;;;;;;;9.20;5.50;;;;;;;2.24;83.84;99484.84;2109890;83;21056;-84
2022/12/07 14:12:36;;;;;;;8.25;5.42;;;;;;;2.20;84.00;99488.68;2117205;83;21006;-81
2022/12/07 14:15:37;;;;;;;12.98;5.42;;;;;;;2.17;83.87;99475.37;2114427;83;21109;-80
2022/12/07 14:18:41;;;;;;;7.60;5.45;;;;;;;2.13;83.92;99467.41;2087177;84;21097;-81
2022/12/07 14:21:42;;;;;;;8.80;6.05;;;;;;;2.09;83.89;99473.87;2071741;85;21039;-81
2022/12/07 14:24:45;;;;;;;9.33;6.25;;;;;;;2.06;84.04;99476.75;2070644;84;21046;-81
2022/12/07 14:28:00;;;;;;;9.83;5.62;;;;;;;2.02;84.21;99477.45;2095292;84;21461;-81
2022/12/07 14:31:03;;;;;;;11.78;6.53;;;;;;;2.00;84.42;99478.09;2088555;84;21527;-81
2022/12/07 14:34:04;;;;;;;13.50;6.83;;;;;;;1.97;84.53;99486.65;2119355;83;21009;-80
2022/12/07 14:37:10;;;;;;;12.00;5.90;;;;;;;1.95;84.42;99478.12;2125410;83;21050;-80
2022/12/07 14:40:27;;;;;;;7.62;5.50;;;;;;;1.96;84.39;99482.38;2125020;83;21029;-81
2022/12/07 14:43:28;;;;;;;7.65;5.20;;;;;;;1.96;84.36;99476.66;2120933;82;21046;-80